createdAt,value
2022-07-26T00:00:36.376Z,98834.28
2022-07-26T00:05:39.315Z,98832.56
2022-07-26T00:10:46.636Z,98829.03
2022-07-26T00:15:50.364Z,98829.31
2022-07-26T00:20:53.658Z,98825.84
2022-07-26T00:25:58.308Z,98823.78
2022-07-26T00:31:01.119Z,98834.03
2022-07-26T00:36:04.272Z,98817.19
2022-07-26T00:41:08.001Z,98827.44
2022-07-26T00:46:10.714Z,98821.06
2022-07-26T00:51:13.561Z,98819.16
2022-07-26T00:56:16.778Z,98820.56
2022-07-26T01:01:19.617Z,98806.13
2022-07-26T01:06:27.284Z,98813.16
2022-07-26T01:11:30.211Z,98810.09
2022-07-26T01:16:32.990Z,98815.19
2022-07-26T01:21:35.991Z,98811.03
2022-07-26T01:26:38.881Z,98804.84
2022-07-26T01:31:41.670Z,98815.69
2022-07-26T01:36:44.524Z,98816.03
2022-07-26T01:41:47.163Z,98816.69
2022-07-26T01:46:50.292Z,98817.09
2022-07-26T01:51:52.977Z,98821.78
2022-07-26T01:56:55.621Z,98811.50
2022-07-26T02:01:58.439Z,98820.72
2022-07-26T02:07:03.245Z,98825.16
2022-07-26T02:12:08.659Z,98817.44
2022-07-26T02:17:12.317Z,98813.13
2022-07-26T02:22:15.261Z,98803.75
2022-07-26T02:27:18.261Z,98804.88
2022-07-26T02:32:20.932Z,98815.38
2022-07-26T02:37:23.615Z,98816.97
2022-07-26T02:42:26.356Z,98814.84
2022-07-26T02:47:29.086Z,98800.56
2022-07-26T02:52:31.854Z,98814.59
2022-07-26T02:57:45.309Z,98821.63
2022-07-26T03:02:51.308Z,98830.13
2022-07-26T03:07:54.169Z,98820.03
2022-07-26T03:12:56.763Z,98826.66
2022-07-26T03:17:59.489Z,98816.19
2022-07-26T03:23:02.334Z,98846.91
2022-07-26T03:28:05.282Z,98849.03
2022-07-26T03:33:07.973Z,98854.75
2022-07-26T03:38:10.625Z,98855.75
2022-07-26T03:43:13.358Z,98860.94
2022-07-26T03:48:16.124Z,98868.03
2022-07-26T03:53:19.050Z,98866.38
2022-07-26T03:58:21.880Z,98871.31
2022-07-26T04:03:25.476Z,98864.47
2022-07-26T04:08:28.416Z,98867.28
2022-07-26T04:13:31.073Z,98870.66
2022-07-26T04:18:33.752Z,98879.66
2022-07-26T04:23:37.142Z,98848.97
2022-07-26T04:28:41.115Z,98866.78
2022-07-26T04:33:43.780Z,98870.03
2022-07-26T04:38:46.569Z,98867.47
2022-07-26T04:43:49.232Z,98862.25
2022-07-26T04:48:51.976Z,98872.06
2022-07-26T04:53:54.721Z,98858.63
2022-07-26T04:58:57.405Z,98874.63
2022-07-26T05:04:00.027Z,98871.22
2022-07-26T05:09:03.111Z,98875.47
2022-07-26T05:14:06.099Z,98878.41
2022-07-26T05:19:09.131Z,98875.41
2022-07-26T05:24:12.176Z,98882.88
2022-07-26T05:29:15.265Z,98877.56
2022-07-26T05:34:17.985Z,98888.63
2022-07-26T05:39:20.658Z,98866.75
2022-07-26T05:44:24.676Z,98882.50
2022-07-26T05:49:40.485Z,98868.50
2022-07-26T05:54:43.530Z,98865.75
2022-07-26T05:59:46.219Z,98861.31
2022-07-26T06:04:48.979Z,98875.47
2022-07-26T06:09:51.774Z,98873.06
2022-07-26T06:14:54.370Z,98867.88
2022-07-26T06:19:58.155Z,98881.00
2022-07-26T06:25:00.859Z,98880.69
2022-07-26T06:30:04.716Z,98875.94
2022-07-26T06:35:07.745Z,98860.78
2022-07-26T06:40:11.273Z,98868.94
2022-07-26T06:45:14.384Z,98874.75
2022-07-26T06:50:17.161Z,98861.72
2022-07-26T06:55:28.045Z,98852.53
2022-07-26T07:00:30.873Z,98855.88
2022-07-26T07:05:33.573Z,98850.28
2022-07-26T07:10:36.309Z,98854.69
2022-07-26T07:15:39.146Z,98851.69
2022-07-26T07:20:41.839Z,98844.06
2022-07-26T07:25:44.750Z,98845.63
2022-07-26T07:30:47.884Z,98848.25
2022-07-26T07:35:52.338Z,98845.88
2022-07-26T07:40:55.107Z,98854.72
2022-07-26T07:45:57.845Z,98840.16
2022-07-26T07:51:00.613Z,98837.19
2022-07-26T07:56:03.900Z,98844.66
2022-07-26T08:01:06.838Z,98842.66
2022-07-26T08:06:12.840Z,98853.00
2022-07-26T08:11:16.353Z,98856.50
2022-07-26T08:16:19.103Z,98850.50
2022-07-26T08:21:21.910Z,98855.13
2022-07-26T08:26:25.326Z,98847.34
2022-07-26T08:31:29.305Z,98839.22
2022-07-26T08:36:33.115Z,98847.97
2022-07-26T08:41:36.936Z,98848.66
2022-07-26T08:46:41.960Z,98849.88
2022-07-26T08:51:45.077Z,98841.72
2022-07-26T08:56:52.590Z,98826.94
2022-07-26T09:02:07.777Z,98852.84
2022-07-26T09:07:19.113Z,98851.59
2022-07-26T09:12:23.531Z,98858.63
2022-07-26T09:17:38.815Z,98848.78
2022-07-26T09:23:02.561Z,98857.94
2022-07-26T09:28:25.820Z,98857.28
2022-07-26T09:33:48.175Z,98855.00
2022-07-26T09:38:58.353Z,98854.75
2022-07-26T09:44:06.707Z,98854.22
2022-07-26T09:49:20.422Z,98854.88
2022-07-26T09:54:46.881Z,98841.72
2022-07-26T09:59:49.626Z,98837.00
2022-07-26T10:04:56.653Z,98836.00
2022-07-26T10:10:05.038Z,98849.56
2022-07-26T10:15:47.319Z,98862.84
2022-07-26T10:20:51.592Z,98844.44
2022-07-26T10:25:54.698Z,98848.75
2022-07-26T10:31:21.590Z,98857.94
2022-07-26T10:36:31.158Z,98849.06
2022-07-26T10:41:48.597Z,98843.31
2022-07-26T10:47:00.177Z,98832.84
2022-07-26T10:52:12.661Z,98835.69
2022-07-26T10:57:15.421Z,98835.22
2022-07-26T11:02:19.630Z,98828.19
2022-07-26T11:07:22.331Z,98815.28
2022-07-26T11:12:25.876Z,98816.66
2022-07-26T11:17:30.449Z,98831.22
2022-07-26T11:22:34.224Z,98822.16
2022-07-26T11:27:37.129Z,98783.03
2022-07-26T11:32:39.882Z,98799.50
2022-07-26T11:37:53.121Z,98802.28
2022-07-26T11:42:55.894Z,98790.38
2022-07-26T11:47:59.061Z,98786.63
2022-07-26T11:53:01.833Z,98788.63
2022-07-26T11:58:06.943Z,98781.06
2022-07-26T12:03:09.685Z,98771.81
2022-07-26T12:08:12.396Z,98763.22
2022-07-26T12:13:16.374Z,98774.25
2022-07-26T12:18:23.883Z,98777.19
2022-07-26T12:23:26.970Z,98792.53
2022-07-26T12:28:42.898Z,98782.56
2022-07-26T12:33:49.473Z,98778.19
2022-07-26T12:38:56.125Z,98779.88
2022-07-26T12:43:59.867Z,98792.72
2022-07-26T12:49:04.187Z,98780.19
2022-07-26T12:54:07.446Z,98788.59
2022-07-26T12:59:12.277Z,98791.59
2022-07-26T13:04:20.867Z,98791.53
2022-07-26T13:09:23.575Z,98782.88
2022-07-26T13:14:26.398Z,98780.00
2022-07-26T13:19:30.038Z,98803.44
2022-07-26T13:24:34.268Z,98813.19
2022-07-26T13:29:37.418Z,98836.34
2022-07-26T13:34:40.165Z,98843.06
2022-07-26T13:39:45.081Z,98800.19
2022-07-26T13:44:47.750Z,98821.06
2022-07-26T13:49:51.557Z,98828.72
2022-07-26T13:54:54.178Z,98808.94
2022-07-26T13:59:56.979Z,98791.38
2022-07-26T14:04:59.805Z,98797.84
2022-07-26T14:10:02.669Z,98810.44
2022-07-26T14:15:13.751Z,98832.00
2022-07-26T14:20:20.748Z,98825.03
2022-07-26T14:25:25.494Z,98843.38
2022-07-26T14:30:28.382Z,98826.56
2022-07-26T14:35:31.124Z,98824.75
2022-07-26T14:40:35.541Z,98831.91
2022-07-26T14:45:38.284Z,98829.63
2022-07-26T14:51:07.199Z,98824.69
2022-07-26T14:56:04.627Z,98831.31
2022-07-26T15:01:07.523Z,98848.31
2022-07-26T15:06:10.317Z,98815.47
2022-07-26T15:11:13.733Z,98834.09
2022-07-26T15:16:16.465Z,98852.47
2022-07-26T15:21:19.221Z,98853.72
2022-07-26T15:26:21.917Z,98846.31
2022-07-26T15:31:24.952Z,98848.66
2022-07-26T15:36:40.302Z,98848.69
2022-07-26T15:41:42.923Z,98854.88
2022-07-26T15:46:48.183Z,98851.69
2022-07-26T15:51:51.623Z,98853.63
2022-07-26T15:56:54.366Z,98864.53
2022-07-26T16:01:57.133Z,98877.38
2022-07-26T16:06:59.814Z,98876.97
2022-07-26T16:12:05.904Z,98880.63
2022-07-26T16:17:10.434Z,98884.75
2022-07-26T16:22:13.149Z,98887.09
2022-07-26T16:27:15.972Z,98885.78
2022-07-26T16:32:20.729Z,98888.69
2022-07-26T16:37:23.477Z,98889.09
2022-07-26T16:42:26.442Z,98888.47
2022-07-26T16:47:29.371Z,98879.53
2022-07-26T16:52:32.230Z,98885.59
2022-07-26T16:57:34.944Z,98879.22
2022-07-26T17:02:39.077Z,98881.44
2022-07-26T17:07:41.835Z,98880.66
2022-07-26T17:12:44.851Z,98886.56
2022-07-26T17:17:49.963Z,98884.28
2022-07-26T17:22:53.624Z,98891.59
2022-07-26T17:27:56.383Z,98898.34
2022-07-26T17:32:59.182Z,98890.72
2022-07-26T17:38:01.992Z,98924.84
2022-07-26T17:43:06.243Z,98927.56
2022-07-26T17:48:09.261Z,98929.94
2022-07-26T17:53:11.943Z,98934.66
2022-07-26T17:58:14.697Z,98932.47
2022-07-26T18:03:18.229Z,98931.09
2022-07-26T18:08:23.034Z,98919.19
2022-07-26T18:13:26.584Z,98940.94
2022-07-26T18:18:29.268Z,98942.75
2022-07-26T18:23:31.984Z,98906.28
2022-07-26T18:28:34.636Z,98934.28
2022-07-26T18:33:37.285Z,98933.47
2022-07-26T18:38:40.181Z,98946.72
2022-07-26T18:43:46.185Z,98945.50
2022-07-26T18:48:48.931Z,98934.66
2022-07-26T18:53:52.163Z,98943.94
2022-07-26T18:58:54.942Z,98952.47
2022-07-26T19:03:57.798Z,98946.22
2022-07-26T19:09:00.730Z,98947.16
2022-07-26T19:14:03.401Z,98947.50
2022-07-26T19:19:06.313Z,98960.78
2022-07-26T19:24:09.012Z,98964.13
2022-07-26T19:29:11.915Z,98939.56
2022-07-26T19:34:15.447Z,98961.56
2022-07-26T19:39:18.305Z,98953.13
2022-07-26T19:44:21.221Z,98962.50
2022-07-26T19:49:24.045Z,98957.72
2022-07-26T19:54:26.850Z,98942.38
2022-07-26T19:59:29.538Z,98927.50
2022-07-26T20:04:32.269Z,98946.03
2022-07-26T20:09:35.033Z,98942.16
2022-07-26T20:14:37.841Z,98930.16
2022-07-26T20:19:41.147Z,98930.91
2022-07-26T20:24:43.936Z,98923.41
2022-07-26T20:29:46.652Z,98929.31
2022-07-26T20:34:49.475Z,98919.22
2022-07-26T20:39:52.114Z,98927.34
2022-07-26T20:44:54.772Z,98925.34
2022-07-26T20:50:02.809Z,98920.31
2022-07-26T20:55:06.957Z,98922.16
2022-07-26T21:00:11.536Z,98927.13
2022-07-26T21:05:14.292Z,98936.09
2022-07-26T21:10:17.649Z,98922.84
2022-07-26T21:15:21.291Z,98935.28
2022-07-26T21:20:24.173Z,98924.09
2022-07-26T21:25:26.919Z,98932.13
2022-07-26T21:30:31.340Z,98944.66
2022-07-26T21:35:34.538Z,98949.19
2022-07-26T21:40:37.264Z,98945.69
2022-07-26T21:45:40.189Z,98940.13
2022-07-26T21:50:42.884Z,98947.19
2022-07-26T21:55:46.373Z,98953.72
2022-07-26T22:00:49.160Z,98955.72
2022-07-26T22:05:52.574Z,98939.56
2022-07-26T22:10:56.908Z,98952.72
2022-07-26T22:15:59.733Z,98959.13
2022-07-26T22:21:02.861Z,98947.22
2022-07-26T22:26:05.647Z,98958.19
2022-07-26T22:31:08.455Z,98967.78
2022-07-26T22:36:11.189Z,98965.66
2022-07-26T22:41:13.968Z,98962.69
2022-07-26T22:46:16.789Z,98960.44
2022-07-26T22:51:19.724Z,98952.31
2022-07-26T22:56:22.474Z,98952.03
2022-07-26T23:01:25.270Z,98946.97
2022-07-26T23:06:31.240Z,98940.25
2022-07-26T23:11:34.959Z,98948.47
2022-07-26T23:16:38.423Z,98944.56
2022-07-26T23:21:41.280Z,98954.41
2022-07-26T23:26:44.021Z,98947.31
2022-07-26T23:31:46.740Z,98946.56
2022-07-26T23:36:49.512Z,98950.53
2022-07-26T23:41:52.272Z,98968.16
2022-07-26T23:46:55.125Z,98955.13
2022-07-26T23:51:57.907Z,98958.81
2022-07-26T23:57:00.781Z,98949.75
